AAY1017 KPIE-KMYR
Flight info
| Callsign | AAY1017 |
|---|---|
| Flight time | N/A |
| Altitude | 37000 |
| Route | LLRGO1 CAMJO Q109 PANDY |
| Aircraft | B738/M-SDE2E3FGHIRWXY/LB1 |
Departure
| Time | 2026-04-22 21:03 |
|---|---|
| Airport | St. Petersburg Clearwater International Airport (KPIE) |
Arrival
| Time | N/A |
|---|---|
| Airport | Myrtle Beach International Airport (KMYR) |
| Time | Latitude | Longitude | Altitude | Speed | Heading |
|---|---|---|---|---|---|
| 2026-04-22 20:30 | 27.90665 | -82.69014 | 23 ft | 0 kts | 262° |
| 2026-04-22 20:53 | 27.90667 | -82.68995 | 23 ft | 4 kts | 262° |
| 2026-04-22 20:53 | 27.90672 | -82.68967 | 25 ft | 4 kts | 253° |
| 2026-04-22 20:54 | 27.90681 | -82.68939 | 23 ft | 3 kts | 245° |
| 2026-04-22 20:54 | 27.90683 | -82.68935 | 23 ft | 1 kts | 245° |
| 2026-04-22 20:57 | 27.90668 | -82.68938 | 24 ft | 3 kts | 169° |
| 2026-04-22 20:57 | 27.90645 | -82.68933 | 24 ft | 4 kts | 171° |
| 2026-04-22 20:57 | 27.90611 | -82.68927 | 23 ft | 6 kts | 171° |
| 2026-04-22 20:58 | 27.90561 | -82.68918 | 26 ft | 9 kts | 171° |
| 2026-04-22 20:58 | 27.90489 | -82.68904 | 24 ft | 12 kts | 171° |
| 2026-04-22 20:58 | 27.90394 | -82.68887 | 23 ft | 15 kts | 171° |
| 2026-04-22 20:58 | 27.90282 | -82.68867 | 23 ft | 17 kts | 171° |
| 2026-04-22 20:59 | 27.90164 | -82.68857 | 22 ft | 17 kts | 183° |
| 2026-04-22 20:59 | 27.90050 | -82.68864 | 20 ft | 16 kts | 183° |
| 2026-04-22 20:59 | 27.89940 | -82.68864 | 21 ft | 15 kts | 174° |
| 2026-04-22 20:59 | 27.89836 | -82.68843 | 23 ft | 15 kts | 170° |
| 2026-04-22 21:00 | 27.89739 | -82.68824 | 25 ft | 14 kts | 170° |
| 2026-04-22 21:00 | 27.89695 | -82.68766 | 22 ft | 10 kts | 88° |
| 2026-04-22 21:00 | 27.89700 | -82.68723 | 21 ft | 0 kts | 84° |
| 2026-04-22 21:01 | 27.89702 | -82.68706 | 21 ft | 5 kts | 81° |
| 2026-04-22 21:02 | 27.89714 | -82.68644 | 19 ft | 10 kts | 60° |
| 2026-04-22 21:02 | 27.89785 | -82.68629 | 18 ft | 12 kts | 347° |
| 2026-04-22 21:02 | 27.89877 | -82.68649 | 20 ft | 19 kts | 351° |
| 2026-04-22 21:02 | 27.90032 | -82.68676 | 20 ft | 26 kts | 351° |
| 2026-04-22 21:03 | 27.90472 | -82.68754 | 25 ft | 103 kts | 351° |
| 2026-04-22 21:03 | 27.91422 | -82.68914 | 25 ft | 170 kts | 352° |
| 2026-04-22 21:03 | 27.92701 | -82.69114 | 518 ft | 198 kts | 354° |
| 2026-04-22 21:03 | 27.94114 | -82.69321 | 1337 ft | 206 kts | 354° |
| 2026-04-22 21:04 | 27.95464 | -82.69547 | 2636 ft | 182 kts | 354° |
| 2026-04-22 21:04 | 27.96680 | -82.69814 | 3341 ft | 199 kts | 349° |
| 2026-04-22 21:04 | 27.98362 | -82.70433 | 2562 ft | 283 kts | 342° |
| 2026-04-22 21:04 | 28.00294 | -82.71147 | 2778 ft | 295 kts | 344° |
| 2026-04-22 21:05 | 28.02188 | -82.71760 | 2872 ft | 271 kts | 354° |
| 2026-04-22 21:05 | 28.03936 | -82.71510 | 2852 ft | 246 kts | 25° |